createdAt,value
2017-08-27T00:00:07.627Z,101071.50
2017-08-27T00:02:42.466Z,101070.33
2017-08-27T00:05:17.278Z,101077.95
2017-08-27T00:07:52.112Z,101073.69
2017-08-27T00:10:26.862Z,101069.30
2017-08-27T00:13:01.606Z,101069.45
2017-08-27T00:15:36.329Z,101067.80
2017-08-27T00:18:11.114Z,101070.97
2017-08-27T00:20:45.885Z,101065.98
2017-08-27T00:23:20.727Z,101070.72
2017-08-27T00:25:55.509Z,101063.03
2017-08-27T00:28:30.239Z,101066.50
2017-08-27T00:31:04.996Z,101061.15
2017-08-27T00:33:39.797Z,101063.39
2017-08-27T00:36:14.331Z,101066.50
2017-08-27T00:38:49.371Z,101071.47
2017-08-27T00:41:24.108Z,101069.33
2017-08-27T00:43:58.739Z,101067.95
2017-08-27T00:46:33.383Z,101068.26
2017-08-27T00:49:07.780Z,101076.16
2017-08-27T00:51:42.756Z,101080.19
2017-08-27T00:54:17.007Z,101084.30
2017-08-27T00:56:51.601Z,101083.58
2017-08-27T00:59:26.475Z,101088.73
2017-08-27T01:02:01.259Z,101081.19
2017-08-27T01:04:35.511Z,101089.63
2017-08-27T01:07:10.012Z,101079.64
2017-08-27T01:09:44.784Z,101086.55
2017-08-27T01:12:19.464Z,101080.03
2017-08-27T01:14:54.391Z,101089.95
2017-08-27T01:17:29.184Z,101088.76
2017-08-27T01:20:03.724Z,101094.66
2017-08-27T01:22:38.191Z,101100.36
2017-08-27T01:25:13.245Z,101097.55
2017-08-27T01:27:48.304Z,101103.77
2017-08-27T01:30:23.932Z,101103.16
2017-08-27T01:32:58.560Z,101106.39
2017-08-27T01:35:33.173Z,101105.12
2017-08-27T01:38:07.934Z,101114.59
2017-08-27T01:40:42.784Z,101115.52
2017-08-27T01:43:17.490Z,101111.45
2017-08-27T01:45:52.120Z,101117.58
2017-08-27T01:48:26.818Z,101113.48
2017-08-27T01:51:01.546Z,101123.72
2017-08-27T01:53:37.855Z,101122.09
2017-08-27T01:56:12.767Z,101128.80
2017-08-27T01:58:47.820Z,101126.91
2017-08-27T02:01:22.392Z,101132.50
2017-08-27T02:03:57.124Z,101130.61
2017-08-27T02:06:31.739Z,101126.26
2017-08-27T02:09:06.404Z,101135.23
2017-08-27T02:11:41.398Z,101131.92
2017-08-27T02:14:16.819Z,101136.31
2017-08-27T02:16:51.514Z,101132.61
2017-08-27T02:19:26.253Z,101140.31
2017-08-27T02:22:01.908Z,101137.77
2017-08-27T02:24:36.606Z,101142.33
2017-08-27T02:27:11.280Z,101139.54
2017-08-27T02:29:46.016Z,101140.30
2017-08-27T02:32:20.631Z,101138.08
2017-08-27T02:34:55.334Z,101143.44
2017-08-27T02:37:30.065Z,101144.34
2017-08-27T02:40:04.771Z,101150.20
2017-08-27T02:42:40.355Z,101148.41
2017-08-27T02:45:15.974Z,101146.23
2017-08-27T02:47:50.879Z,101150.59
2017-08-27T02:50:25.564Z,101150.16
2017-08-27T02:53:00.419Z,101144.98
2017-08-27T02:55:35.096Z,101150.22
2017-08-27T02:58:09.746Z,101148.81
2017-08-27T03:00:44.546Z,101142.32
2017-08-27T03:03:19.395Z,101145.42
2017-08-27T03:05:54.155Z,101143.87
2017-08-27T03:08:28.896Z,101141.41
2017-08-27T03:11:03.558Z,101142.93
2017-08-27T03:13:38.323Z,101138.16
2017-08-27T03:16:12.990Z,101134.41
2017-08-27T03:18:47.671Z,101133.88
2017-08-27T03:21:22.499Z,101144.66
2017-08-27T03:23:57.138Z,101132.86
2017-08-27T03:26:31.834Z,101148.77
2017-08-27T03:29:06.507Z,101140.39
2017-08-27T03:31:41.172Z,101145.85
2017-08-27T03:34:16.536Z,101141.67
2017-08-27T03:36:51.600Z,101144.86
2017-08-27T03:39:26.260Z,101148.28
2017-08-27T03:42:00.931Z,101146.04
2017-08-27T03:44:36.487Z,101144.41
2017-08-27T03:47:11.143Z,101144.77
2017-08-27T03:49:45.824Z,101148.60
2017-08-27T03:52:20.548Z,101155.95
2017-08-27T03:54:55.296Z,101160.77
2017-08-27T03:57:30.066Z,101159.81
2017-08-27T04:00:04.404Z,101155.45
2017-08-27T04:02:39.436Z,101159.03
2017-08-27T04:05:14.259Z,101163.44
2017-08-27T04:07:48.940Z,101162.53
2017-08-27T04:10:23.558Z,101162.46
2017-08-27T04:12:58.088Z,101170.79
2017-08-27T04:15:33.174Z,101171.88
2017-08-27T04:18:07.576Z,101175.03
2017-08-27T04:20:43.175Z,101176.84
2017-08-27T04:23:17.958Z,101187.23
2017-08-27T04:25:52.490Z,101191.71
2017-08-27T04:28:27.167Z,101193.97
2017-08-27T04:31:01.939Z,101198.05
2017-08-27T04:33:37.465Z,101205.21
2017-08-27T04:36:12.235Z,101202.64
2017-08-27T04:38:47.007Z,101206.09
2017-08-27T04:41:21.739Z,101214.38
2017-08-27T04:43:56.568Z,101216.89
2017-08-27T04:46:31.306Z,101222.42
2017-08-27T04:49:06.076Z,101214.97
2017-08-27T04:51:40.758Z,101221.70
2017-08-27T04:54:15.843Z,101222.46
2017-08-27T04:56:51.180Z,101219.38
2017-08-27T04:59:25.768Z,101228.11
2017-08-27T05:02:00.552Z,101224.98
2017-08-27T05:04:35.234Z,101234.58
2017-08-27T05:07:10.012Z,101224.38
2017-08-27T05:09:44.769Z,101228.45
2017-08-27T05:12:19.567Z,101223.37
2017-08-27T05:14:54.479Z,101219.49
2017-08-27T05:17:29.184Z,101219.13
2017-08-27T05:20:03.815Z,101225.42
2017-08-27T05:22:38.430Z,101227.81
2017-08-27T05:25:12.966Z,101228.53
2017-08-27T05:27:47.771Z,101233.37
2017-08-27T05:30:22.603Z,101240.34
2017-08-27T05:32:57.131Z,101236.70
2017-08-27T05:35:31.846Z,101239.13
2017-08-27T05:38:06.872Z,101241.20
2017-08-27T05:40:42.239Z,101244.39
2017-08-27T05:43:16.768Z,101241.83
2017-08-27T05:45:51.695Z,101248.80
2017-08-27T05:48:26.390Z,101247.35
2017-08-27T05:51:01.260Z,101247.31
2017-08-27T05:53:36.027Z,101243.47
2017-08-27T05:56:10.624Z,101254.04
2017-08-27T05:58:45.363Z,101252.44
2017-08-27T06:01:20.043Z,101257.67
2017-08-27T06:03:54.892Z,101258.39
2017-08-27T06:06:29.647Z,101263.23
2017-08-27T06:09:03.465Z,101261.08
2017-08-27T06:11:38.680Z,101261.58
2017-08-27T06:14:13.512Z,101264.61
2017-08-27T06:16:48.229Z,101275.24
2017-08-27T06:19:22.858Z,101275.14
2017-08-27T06:21:57.614Z,101273.91
2017-08-27T06:24:32.568Z,101283.05
2017-08-27T06:27:07.135Z,101279.04
2017-08-27T06:29:42.274Z,101284.09
2017-08-27T06:32:16.711Z,101286.89
2017-08-27T06:34:52.371Z,101283.34
2017-08-27T06:37:27.044Z,101289.52
2017-08-27T06:40:02.677Z,101289.50
2017-08-27T06:42:37.362Z,101292.81
2017-08-27T06:45:12.134Z,101299.94
2017-08-27T06:47:46.903Z,101302.84
2017-08-27T06:50:21.792Z,101302.95
2017-08-27T06:52:56.683Z,101306.77
2017-08-27T06:55:31.407Z,101312.05
2017-08-27T06:58:06.196Z,101310.06
2017-08-27T07:00:40.896Z,101316.60
2017-08-27T07:03:15.680Z,101313.98
2017-08-27T07:05:50.599Z,101320.05
2017-08-27T07:08:25.379Z,101319.16
2017-08-27T07:11:00.106Z,101317.06
2017-08-27T07:13:35.696Z,101320.70
2017-08-27T07:16:10.499Z,101318.98
2017-08-27T07:18:45.293Z,101324.37
2017-08-27T07:21:19.897Z,101333.56
2017-08-27T07:23:55.375Z,101331.95
2017-08-27T07:26:30.006Z,101331.47
2017-08-27T07:29:04.845Z,101340.41
2017-08-27T07:31:40.576Z,101334.27
2017-08-27T07:34:15.226Z,101335.66
2017-08-27T07:36:50.307Z,101338.28
2017-08-27T07:39:24.908Z,101338.20
2017-08-27T07:41:59.640Z,101340.89
2017-08-27T07:44:34.264Z,101341.61
2017-08-27T07:47:09.023Z,101347.25
2017-08-27T07:49:43.686Z,101354.73
2017-08-27T07:52:18.563Z,101348.03
2017-08-27T07:54:53.376Z,101346.13
2017-08-27T07:57:28.128Z,101349.34
2017-08-27T08:00:03.327Z,101352.70
2017-08-27T08:02:38.783Z,101355.28
2017-08-27T08:05:13.719Z,101353.75
2017-08-27T08:07:48.334Z,101356.35
2017-08-27T08:10:23.240Z,101358.88
2017-08-27T08:12:57.879Z,101355.36
2017-08-27T08:15:32.572Z,101358.50
2017-08-27T08:18:07.339Z,101358.55
2017-08-27T08:20:42.055Z,101358.53
2017-08-27T08:23:16.776Z,101355.00
2017-08-27T08:25:51.287Z,101365.91
2017-08-27T08:28:26.948Z,101360.70
2017-08-27T08:31:01.905Z,101358.98
2017-08-27T08:33:36.752Z,101363.53
2017-08-27T08:36:11.571Z,101364.12
2017-08-27T08:38:46.350Z,101368.62
2017-08-27T08:41:20.940Z,101361.81
2017-08-27T08:43:55.804Z,101366.02
2017-08-27T08:46:30.511Z,101374.33
2017-08-27T08:49:05.352Z,101362.27
2017-08-27T08:51:40.199Z,101374.67
2017-08-27T08:54:14.622Z,101370.34
2017-08-27T08:56:49.275Z,101378.66
2017-08-27T08:59:23.987Z,101379.82
2017-08-27T09:01:58.688Z,101378.22
2017-08-27T09:04:34.220Z,101379.98
2017-08-27T09:07:09.006Z,101375.55
2017-08-27T09:09:43.792Z,101379.36
2017-08-27T09:12:18.476Z,101375.02
2017-08-27T09:14:53.891Z,101380.30
2017-08-27T09:17:28.441Z,101381.37
2017-08-27T09:20:03.130Z,101387.48
2017-08-27T09:22:37.694Z,101382.74
2017-08-27T09:25:12.283Z,101389.92
2017-08-27T09:27:47.872Z,101387.92
2017-08-27T09:30:22.223Z,101393.59
2017-08-27T09:32:56.922Z,101388.04
2017-08-27T09:35:32.595Z,101383.23
2017-08-27T09:38:07.190Z,101386.41
2017-08-27T09:40:42.859Z,101385.89
2017-08-27T09:43:17.669Z,101382.47
2017-08-27T09:45:52.286Z,101381.84
2017-08-27T09:48:27.867Z,101392.06
2017-08-27T09:51:02.507Z,101391.94
2017-08-27T09:53:37.206Z,101393.29
2017-08-27T09:56:11.810Z,101387.38
2017-08-27T09:58:46.586Z,101388.91
2017-08-27T10:01:21.220Z,101392.56
2017-08-27T10:03:56.005Z,101389.14
2017-08-27T10:06:31.635Z,101389.95
2017-08-27T10:09:06.350Z,101390.74
2017-08-27T10:11:40.908Z,101384.41
2017-08-27T10:14:15.612Z,101393.14
2017-08-27T10:16:50.208Z,101395.00
2017-08-27T10:19:24.914Z,101398.75
2017-08-27T10:21:59.543Z,101399.42
2017-08-27T10:24:34.156Z,101398.11
2017-08-27T10:27:08.907Z,101405.28
2017-08-27T10:29:43.583Z,101404.03
2017-08-27T10:32:19.498Z,101414.50
2017-08-27T10:34:54.148Z,101405.99
2017-08-27T10:37:28.852Z,101414.30
2017-08-27T10:40:03.059Z,101409.13
2017-08-27T10:42:38.036Z,101410.61
2017-08-27T10:45:12.699Z,101410.72
2017-08-27T10:47:47.340Z,101404.56
2017-08-27T10:50:22.840Z,101406.14
2017-08-27T10:52:57.646Z,101398.88
2017-08-27T10:55:32.247Z,101403.95
2017-08-27T10:58:06.919Z,101398.53
2017-08-27T11:00:41.154Z,101400.52
2017-08-27T11:03:16.156Z,101400.09
2017-08-27T11:05:50.855Z,101400.83
2017-08-27T11:08:25.587Z,101387.49
2017-08-27T11:11:00.391Z,101399.02
2017-08-27T11:13:35.123Z,101399.59
2017-08-27T11:16:09.647Z,101401.56
2017-08-27T11:18:45.496Z,101400.04
2017-08-27T11:21:20.132Z,101402.25
2017-08-27T11:23:54.826Z,101414.05
2017-08-27T11:26:29.592Z,101407.13
2017-08-27T11:29:04.135Z,101405.36
2017-08-27T11:31:38.843Z,101404.66
2017-08-27T11:34:13.736Z,101403.34
2017-08-27T11:36:48.984Z,101401.08
2017-08-27T11:39:24.601Z,101401.33
2017-08-27T11:41:59.202Z,101394.03
2017-08-27T11:44:33.967Z,101391.92
2017-08-27T11:47:08.711Z,101385.45
2017-08-27T11:49:43.530Z,101383.34
2017-08-27T11:52:18.860Z,101391.75
2017-08-27T11:54:53.655Z,101396.04
2017-08-27T11:57:28.477Z,101387.02
2017-08-27T12:00:03.048Z,101387.56
2017-08-27T12:02:37.862Z,101383.33
2017-08-27T12:05:12.560Z,101384.88
2017-08-27T12:07:48.150Z,101384.72
2017-08-27T12:10:24.793Z,101389.11
2017-08-27T12:12:59.394Z,101384.34
2017-08-27T12:15:33.840Z,101384.29
2017-08-27T12:18:09.103Z,101385.36
2017-08-27T12:20:43.668Z,101381.55
2017-08-27T12:23:18.438Z,101385.36
2017-08-27T12:25:53.272Z,101384.29
2017-08-27T12:28:27.988Z,101377.94
2017-08-27T12:31:02.728Z,101385.59
2017-08-27T12:33:37.500Z,101387.48
2017-08-27T12:36:12.179Z,101384.02
2017-08-27T12:38:46.796Z,101379.16
2017-08-27T12:41:21.457Z,101382.28
2017-08-27T12:43:56.156Z,101371.42
2017-08-27T12:46:30.903Z,101381.56
2017-08-27T12:49:05.517Z,101380.48
2017-08-27T12:51:39.912Z,101383.09
2017-08-27T12:54:14.964Z,101379.59
2017-08-27T12:56:50.122Z,101381.77
2017-08-27T12:59:25.353Z,101379.98
2017-08-27T13:01:59.988Z,101381.77
2017-08-27T13:04:35.530Z,101374.64
2017-08-27T13:07:10.399Z,101377.81
2017-08-27T13:09:45.285Z,101371.39
2017-08-27T13:12:19.912Z,101370.84
2017-08-27T13:14:54.744Z,101365.24
2017-08-27T13:17:29.491Z,101370.76
2017-08-27T13:20:04.199Z,101368.63
2017-08-27T13:22:39.028Z,101365.79
2017-08-27T13:25:14.059Z,101375.48
2017-08-27T13:27:48.619Z,101367.93
2017-08-27T13:30:22.882Z,101372.84
2017-08-27T13:32:57.708Z,101365.67
2017-08-27T13:35:32.419Z,101371.41
2017-08-27T13:38:08.174Z,101358.98
2017-08-27T13:40:43.884Z,101365.46
2017-08-27T13:43:18.512Z,101368.14
2017-08-27T13:45:53.116Z,101368.04
2017-08-27T13:48:27.764Z,101371.70
2017-08-27T13:51:02.514Z,101370.25
2017-08-27T13:53:37.238Z,101357.55
2017-08-27T13:56:12.151Z,101360.98
2017-08-27T13:58:47.779Z,101369.55
2017-08-27T14:01:23.227Z,101365.45
2017-08-27T14:03:57.799Z,101364.19
2017-08-27T14:06:32.515Z,101367.16
2017-08-27T14:09:07.256Z,101363.02
2017-08-27T14:11:42.980Z,101360.62
2017-08-27T14:14:17.683Z,101361.22
2017-08-27T14:16:52.436Z,101365.23
2017-08-27T14:19:27.126Z,101363.09
2017-08-27T14:22:01.791Z,101362.38
2017-08-27T14:24:36.386Z,101366.28
2017-08-27T14:27:11.107Z,101368.97
2017-08-27T14:29:45.811Z,101373.64
2017-08-27T14:32:20.436Z,101373.97
2017-08-27T14:34:55.232Z,101372.09
2017-08-27T14:37:29.642Z,101365.45
2017-08-27T14:40:04.354Z,101373.93
2017-08-27T14:42:39.128Z,101376.30
2017-08-27T14:45:13.950Z,101370.63
2017-08-27T14:47:48.673Z,101366.05
2017-08-27T14:50:23.382Z,101364.36
2017-08-27T14:52:58.082Z,101365.43
2017-08-27T14:55:32.935Z,101371.06
2017-08-27T14:58:07.799Z,101378.77
2017-08-27T15:00:43.456Z,101377.16
2017-08-27T15:03:19.103Z,101369.56
2017-08-27T15:05:53.795Z,101382.50
2017-08-27T15:08:28.459Z,101385.27
2017-08-27T15:11:04.180Z,101385.56
2017-08-27T15:13:38.820Z,101381.14
2017-08-27T15:16:13.462Z,101383.28
2017-08-27T15:18:48.295Z,101383.73
2017-08-27T15:21:23.220Z,101392.98
2017-08-27T15:23:57.768Z,101385.23
2017-08-27T15:26:32.416Z,101388.39
2017-08-27T15:29:07.232Z,101388.54
2017-08-27T15:31:41.863Z,101386.71
2017-08-27T15:34:16.527Z,101387.70
2017-08-27T15:36:51.172Z,101384.41
2017-08-27T15:39:25.879Z,101381.86
2017-08-27T15:42:00.728Z,101376.77
2017-08-27T15:44:35.502Z,101379.80
2017-08-27T15:47:10.414Z,101379.64
2017-08-27T15:49:46.038Z,101386.94
2017-08-27T15:52:21.779Z,101385.61
2017-08-27T15:54:56.551Z,101381.75
2017-08-27T15:57:31.406Z,101378.70
2017-08-27T16:00:06.059Z,101380.97
2017-08-27T16:02:40.800Z,101374.32
2017-08-27T16:05:15.443Z,101380.34
2017-08-27T16:07:49.989Z,101373.70
2017-08-27T16:10:24.895Z,101377.51
2017-08-27T16:12:59.628Z,101380.39
2017-08-27T16:15:33.963Z,101377.95
2017-08-27T16:18:09.263Z,101377.09
2017-08-27T16:20:44.193Z,101378.03
2017-08-27T16:23:18.668Z,101373.11
2017-08-27T16:25:54.323Z,101374.56
2017-08-27T16:28:29.044Z,101374.97
2017-08-27T16:31:03.748Z,101375.07
2017-08-27T16:33:38.320Z,101372.02
2017-08-27T16:36:13.024Z,101373.56
2017-08-27T16:38:47.631Z,101374.39
2017-08-27T16:41:22.108Z,101370.07
2017-08-27T16:43:56.709Z,101376.02
2017-08-27T16:46:31.288Z,101370.88
2017-08-27T16:49:05.899Z,101368.12
2017-08-27T16:51:40.476Z,101369.80
2017-08-27T16:54:15.399Z,101374.98
2017-08-27T16:56:50.124Z,101371.64
2017-08-27T16:59:24.843Z,101375.32
2017-08-27T17:01:59.594Z,101375.57
2017-08-27T17:04:34.459Z,101375.14
2017-08-27T17:07:08.839Z,101370.64
2017-08-27T17:09:43.280Z,101375.22
2017-08-27T17:12:17.870Z,101375.34
2017-08-27T17:14:52.486Z,101374.69
2017-08-27T17:17:26.916Z,101380.91
2017-08-27T17:20:01.483Z,101376.75
2017-08-27T17:22:36.092Z,101374.34
2017-08-27T17:25:10.643Z,101379.82
2017-08-27T17:27:45.224Z,101379.46
2017-08-27T17:30:19.876Z,101380.47
2017-08-27T17:32:54.406Z,101380.17
2017-08-27T17:35:28.923Z,101378.89
2017-08-27T17:38:04.361Z,101380.06
2017-08-27T17:40:39.064Z,101383.97
2017-08-27T17:43:13.713Z,101381.18
2017-08-27T17:45:48.268Z,101379.67
2017-08-27T17:48:22.824Z,101385.42
2017-08-27T17:50:57.351Z,101384.72
2017-08-27T17:53:31.807Z,101391.27
2017-08-27T17:56:06.503Z,101394.88
2017-08-27T17:58:41.110Z,101388.47
2017-08-27T18:01:15.619Z,101389.64
2017-08-27T18:03:50.123Z,101395.50
2017-08-27T18:06:24.750Z,101398.77
2017-08-27T18:08:59.195Z,101398.75
2017-08-27T18:11:33.687Z,101400.57
2017-08-27T18:14:08.295Z,101401.64
2017-08-27T18:16:43.160Z,101400.29
2017-08-27T18:19:17.869Z,101406.10
2017-08-27T18:21:52.507Z,101407.54
2017-08-27T18:24:27.855Z,101406.39
2017-08-27T18:27:02.547Z,101410.14
2017-08-27T18:29:37.270Z,101407.25
2017-08-27T18:32:11.931Z,101407.22
2017-08-27T18:34:46.608Z,101416.83
2017-08-27T18:37:21.264Z,101418.69
2017-08-27T18:39:55.902Z,101419.67
2017-08-27T18:42:30.221Z,101421.37
2017-08-27T18:45:04.948Z,101413.81
2017-08-27T18:47:39.661Z,101418.84
2017-08-27T18:50:14.212Z,101424.73
2017-08-27T18:52:48.903Z,101419.24
2017-08-27T18:55:23.570Z,101425.53
2017-08-27T18:57:58.182Z,101434.65
2017-08-27T19:00:32.921Z,101435.09
2017-08-27T19:03:07.427Z,101428.91
2017-08-27T19:05:42.343Z,101437.84
2017-08-27T19:08:17.271Z,101444.18
2017-08-27T19:10:52.004Z,101446.63
2017-08-27T19:13:26.727Z,101451.69
2017-08-27T19:16:01.360Z,101455.41
2017-08-27T19:18:36.028Z,101455.55
2017-08-27T19:21:10.559Z,101457.70
2017-08-27T19:23:45.542Z,101460.24
2017-08-27T19:26:20.284Z,101461.94
2017-08-27T19:28:54.889Z,101469.23
2017-08-27T19:31:30.006Z,101468.44
2017-08-27T19:34:04.507Z,101465.40
2017-08-27T19:36:39.260Z,101470.25
2017-08-27T19:39:14.010Z,101467.79
2017-08-27T19:41:48.752Z,101472.16
2017-08-27T19:44:23.692Z,101469.30
2017-08-27T19:46:58.336Z,101475.19
2017-08-27T19:49:33.180Z,101475.81
2017-08-27T19:52:07.887Z,101476.02
2017-08-27T19:54:42.715Z,101475.30
2017-08-27T19:57:17.348Z,101478.20
2017-08-27T19:59:52.197Z,101484.03
2017-08-27T20:02:26.796Z,101483.14
2017-08-27T20:05:01.446Z,101487.89
2017-08-27T20:07:36.320Z,101487.87
2017-08-27T20:10:11.083Z,101496.97
2017-08-27T20:12:45.820Z,101495.55
2017-08-27T20:15:20.491Z,101498.48
2017-08-27T20:17:55.072Z,101497.93
2017-08-27T20:20:29.644Z,101500.91
2017-08-27T20:23:04.540Z,101504.13
2017-08-27T20:25:39.212Z,101509.66
2017-08-27T20:28:14.924Z,101511.70
2017-08-27T20:30:49.164Z,101516.77
2017-08-27T20:33:24.180Z,101516.53
2017-08-27T20:35:58.900Z,101518.35
2017-08-27T20:38:33.631Z,101517.70
2017-08-27T20:41:08.504Z,101525.70
2017-08-27T20:43:43.255Z,101524.11
2017-08-27T20:46:18.020Z,101521.63
2017-08-27T20:48:52.691Z,101526.52
2017-08-27T20:51:27.295Z,101525.59
2017-08-27T20:54:01.988Z,101524.83
2017-08-27T20:56:36.600Z,101526.32
2017-08-27T20:59:12.204Z,101523.19
2017-08-27T21:01:46.902Z,101530.29
2017-08-27T21:04:21.569Z,101527.89
2017-08-27T21:06:56.260Z,101532.05
2017-08-27T21:09:31.003Z,101524.99
2017-08-27T21:12:05.745Z,101531.68
2017-08-27T21:14:42.396Z,101531.52
2017-08-27T21:17:16.831Z,101539.73
2017-08-27T21:19:51.687Z,101545.66
2017-08-27T21:22:26.427Z,101547.45
2017-08-27T21:25:01.065Z,101541.90
2017-08-27T21:27:35.816Z,101543.03
2017-08-27T21:30:10.468Z,101539.22
2017-08-27T21:32:45.040Z,101541.02
2017-08-27T21:35:19.788Z,101534.73
2017-08-27T21:37:54.556Z,101536.65
2017-08-27T21:40:30.257Z,101538.64
2017-08-27T21:43:04.782Z,101536.91
2017-08-27T21:45:39.551Z,101530.51
2017-08-27T21:48:14.254Z,101531.11
2017-08-27T21:50:49.002Z,101536.18
2017-08-27T21:53:23.713Z,101534.95
2017-08-27T21:55:59.246Z,101540.92
2017-08-27T21:58:33.888Z,101539.47
2017-08-27T22:01:08.764Z,101538.21
2017-08-27T22:03:43.354Z,101543.45
2017-08-27T22:06:18.746Z,101547.71
2017-08-27T22:08:53.339Z,101546.45
2017-08-27T22:11:27.990Z,101542.50
2017-08-27T22:14:02.727Z,101547.22
2017-08-27T22:16:38.371Z,101553.31
2017-08-27T22:19:13.953Z,101550.94
2017-08-27T22:21:48.552Z,101552.67
2017-08-27T22:24:23.307Z,101559.44
2017-08-27T22:26:59.056Z,101562.09
2017-08-27T22:29:33.667Z,101560.07
2017-08-27T22:32:08.317Z,101557.79
2017-08-27T22:34:43.075Z,101561.95
2017-08-27T22:37:17.732Z,101564.09
2017-08-27T22:39:52.422Z,101561.91
2017-08-27T22:42:26.837Z,101564.08
2017-08-27T22:45:02.382Z,101565.48
2017-08-27T22:47:38.932Z,101560.41
2017-08-27T22:50:13.638Z,101571.36
2017-08-27T22:52:49.120Z,101566.33
2017-08-27T22:55:23.842Z,101566.66
2017-08-27T22:57:58.478Z,101566.83
2017-08-27T23:00:33.052Z,101564.98
2017-08-27T23:03:07.567Z,101569.75
2017-08-27T23:05:42.491Z,101570.41
2017-08-27T23:08:17.320Z,101560.13
2017-08-27T23:10:52.123Z,101558.17
2017-08-27T23:13:26.748Z,101556.88
2017-08-27T23:16:02.283Z,101558.86
2017-08-27T23:18:37.102Z,101558.34
2017-08-27T23:21:11.715Z,101555.35
2017-08-27T23:23:46.236Z,101554.53
2017-08-27T23:26:20.798Z,101556.17
2017-08-27T23:28:55.793Z,101553.92
2017-08-27T23:31:30.308Z,101555.37
2017-08-27T23:34:04.803Z,101549.39
2017-08-27T23:36:39.600Z,101554.52
2017-08-27T23:39:14.231Z,101552.90
2017-08-27T23:41:48.859Z,101556.13
2017-08-27T23:44:23.488Z,101549.80
2017-08-27T23:46:58.122Z,101549.27
2017-08-27T23:49:32.944Z,101542.74
2017-08-27T23:52:08.447Z,101542.77
2017-08-27T23:54:43.130Z,101542.05
2017-08-27T23:57:17.850Z,101542.83
2017-08-27T23:59:52.683Z,101546.97
